Latest Weather Observations for Newdegate

IDW60801

Issued at 8:05 am WST Sunday 31 August 2014 (issued every 30 minutes, with the page automatically refreshed every 10 minutes)

About weather observations | Map of weather stations | Latest weather observations for WA | Other Formats
Station Details ID: 010692 Name: NEWDEGATE RESEARCH STATION Lat: -33.11 Lon: 118.84 Height: 320.0 m
Data from the previous 72 hours. | See also: Recent months at Newdegate
Date/Time
WST
Temp
°C
App
Temp
°C
Dew
Point
Rel
Hum
%
Delta-T
°C
Wind Press
QNH
hPa
Press
MSL
hPa
Rain
since 9 am
mm
Dir
 
Spd
km/h
Gust
km/h
Spd
kts
Gust
kts
31/08:00am 8.9 5.6 6.5 85 1.1 SSW 13 19 7 10 1018.4 1018.6 2.2
31/07:30am 9.0 5.5 7.1 88 0.9 SSW 15 20 8 11 1018.1 1018.3 2.2
31/07:00am 8.8 6.0 7.1 89 0.8 SW 11 15 6 8 1017.6 1017.8 2.2
31/06:30am 8.5 6.4 6.8 89 0.8 SW 7 9 4 5 1017.1 1017.3 2.2
31/06:00am 8.6 6.7 6.9 89 0.8 WSW 6 7 3 4 1017.2 1017.4 2.2
31/05:30am 8.5 7.0 6.8 89 0.8 W 4 6 2 3 1016.9 1017.1 2.2
31/05:00am 8.3 6.8 6.6 89 0.8 SW 4 6 2 3 1016.8 1017.0 2.2
31/04:30am 8.3 6.4 6.6 89 0.8 SW 6 9 3 5 1016.6 1016.8 2.2
31/04:00am 8.3 7.1 6.6 89 0.8 WSW 2 6 1 3 1016.6 1016.8 2.2
31/03:30am 8.2 7.4 6.5 89 0.8 CALM 0 0 0 0 1016.2 1016.4 2.2
31/03:00am 8.2 7.0 6.3 88 0.9 WNW 2 4 1 2 1016.5 1016.7 2.2
31/02:30am 8.1 6.8 6.2 88 0.9 SSW 2 4 1 2 1016.3 1016.5 2.2
31/02:00am 8.5 7.0 6.6 88 0.9 S 4 4 2 2 1016.2 1016.4 2.2
31/01:30am 8.7 6.8 6.7 87 0.9 S 6 7 3 4 1016.4 1016.6 2.2
31/01:00am 9.4 7.4 7.3 87 1.0 S 7 11 4 6 1016.5 1016.7 2.2
31/12:30am 10.0 7.9 8.3 89 0.8 S 9 13 5 7 1016.9 1017.1 2.2
31/12:00am 10.1 8.6 8.4 89 0.8 S 6 7 3 4 1016.4 1016.6 2.2
 
Date/Time
WST
Temp
°C
App
Temp
°C
Dew
Point
Rel
Hum
%
Delta-T
°C
Wind Press
QNH
hPa
Press
MSL
hPa
Rain
since 9 am
mm
Dir
 
Spd
km/h
Gust
km/h
Spd
kts
Gust
kts
30/11:30pm 10.3 8.7 8.6 89 0.8 SSW 7 9 4 5 1017.0 1017.2 2.2
30/11:00pm 9.7 7.9 7.8 88 0.9 SSW 7 9 4 5 1017.0 1017.2 2.2
30/10:30pm 9.8 8.1 7.7 87 1.0 SSW 6 9 3 5 1016.7 1016.9 2.2
30/10:00pm 10.4 8.9 8.3 87 1.0 SSW 6 7 3 4 1016.8 1017.0 2.2
30/09:30pm 11.1 10.1 9.0 87 1.1 SSW 4 6 2 3 1016.8 1017.0 2.2
30/09:00pm 11.4 9.6 9.5 88 1.0 SW 9 13 5 7 1017.2 1017.4 2.2
30/08:30pm 11.6 10.4 9.7 88 1.0 SW 6 7 3 4 1016.9 1017.1 2.2
30/08:00pm 11.8 10.5 10.0 89 0.9 SSW 7 9 4 5 1016.6 1016.8 2.2
30/07:30pm 11.6 11.2 9.7 88 1.0 SSW 2 4 1 2 1016.2 1016.4 2.2
30/07:00pm 11.7 10.4 9.8 88 1.0 SSW 7 9 4 5 1016.1 1016.3 2.2
30/06:30pm 11.7 10.5 9.4 86 1.2 SSW 6 6 3 3 1016.0 1016.1 2.2
30/06:00pm 12.3 11.1 9.7 84 1.3 S 6 6 3 3 1015.5 1015.7 2.2
30/05:30pm 13.0 11.0 10.0 82 1.6 SSW 11 15 6 8 1015.4 1015.6 2.2
30/05:00pm 13.7 11.4 10.5 81 1.7 SSW 13 22 7 12 1015.2 1015.4 2.2
30/04:30pm 14.0 11.4 10.6 80 1.8 SSW 15 20 8 11 1014.7 1014.9 2.2
30/04:00pm 14.5 12.0 10.9 79 1.9 SW 15 22 8 12 1014.3 1014.5 2.2
30/03:30pm 15.0 12.9 11.2 78 2.1 SW 13 17 7 9 1014.2 1014.4 2.2
30/03:00pm 15.2 13.7 11.8 80 1.9 SW 11 17 6 9 1014.1 1014.3 2.2
30/02:30pm 16.2 15.1 11.8 75 2.4 SW 9 13 5 7 1013.9 1014.1 2.0
30/02:00pm 16.1 15.1 12.3 78 2.1 SW 9 13 5 7 1014.0 1014.2 2.0
30/01:30pm 15.3 13.5 12.2 82 1.7 WSW 13 19 7 10 1014.0 1014.2 2.0
30/01:00pm 15.8 14.5 11.4 75 2.4 WSW 9 15 5 8 1014.0 1014.2 1.6
30/12:30pm 14.9 12.6 11.7 81 1.8 SSW 15 22 8 12 1014.3 1014.5 1.6
30/12:00pm 15.1 13.5 12.8 86 1.3 SW 13 19 7 10 1014.5 1014.7 1.6
30/11:30am 14.6 12.7 13.0 90 0.9 SSW 15 20 8 11 1014.4 1014.6 1.6
30/11:00am 14.4 12.4 12.6 89 1.0 W 15 19 8 10 1014.8 1015.0 0.8
30/10:30am 14.3 12.7 12.7 90 0.9 WNW 13 19 7 10 1014.7 1014.9 0.8
30/10:00am 13.8 12.8 12.4 91 0.8 WNW 9 15 5 8 1014.8 1015.0 0.6
30/09:30am 13.6 13.0 12.2 91 0.8 WNW 7 13 4 7 1014.7 1014.9 0.0
30/09:00am 13.4 11.9 12.0 91 0.8 WNW 11 17 6 9 1014.7 1014.9 43.0
30/08:30am 13.2 11.3 11.8 91 0.8 NW 13 19 7 10 1014.4 1014.6 43.0
30/08:00am 13.1 11.2 11.8 92 0.7 NW 13 19 7 10 1014.2 1014.4 43.0
30/07:30am 12.7 10.3 11.4 92 0.7 NW 15 20 8 11 1013.9 1014.1 43.0
30/07:00am 12.5 10.0 11.2 92 0.7 NW 15 20 8 11 1013.7 1013.9 43.0
30/06:30am 12.4 10.3 11.1 92 0.7 NW 13 17 7 9 1013.3 1013.4 43.0
30/06:00am 12.3 10.2 11.0 92 0.7 NNW 13 19 7 10 1012.9 1013.0 43.0
30/05:30am 12.4 9.9 11.1 92 0.7 NNW 15 20 8 11 1012.9 1013.0 43.0
30/05:00am 12.4 9.9 11.1 92 0.7 NNW 15 20 8 11 1012.5 1012.6 43.0
30/04:30am 12.4 9.2 11.1 92 0.7 N 19 26 10 14 1012.0 1012.2 43.0
30/04:00am 12.4 10.3 11.1 92 0.7 N 13 20 7 11 1012.2 1012.4 43.0
30/03:30am 12.4 10.3 11.1 92 0.7 NNW 13 20 7 11 1012.4 1012.5 42.6
30/03:00am 12.2 10.4 10.8 91 0.7 N 11 17 6 9 1012.6 1012.7 42.2
30/02:30am 12.2 10.4 10.8 91 0.7 NNW 11 17 6 9 1012.6 1012.7 42.2
30/02:00am 12.1 11.6 10.7 91 0.7 NW 4 6 2 3 1013.2 1013.3 42.0
30/01:30am 12.3 11.5 10.9 91 0.7 NW 6 7 3 4 1013.6 1013.8 41.0
30/01:00am 12.4 11.6 11.0 91 0.7 WNW 6 11 3 6 1013.2 1013.3 40.0
30/12:30am 12.7 12.0 11.3 91 0.8 WNW 6 7 3 4 1013.6 1013.8 39.0
30/12:00am 12.6 11.8 11.2 91 0.7 NW 6 9 3 5 1013.3 1013.4 38.4
 
Date/Time
WST
Temp
°C
App
Temp
°C
Dew
Point
Rel
Hum
%
Delta-T
°C
Wind Press
QNH
hPa
Press
MSL
hPa
Rain
since 9 am
mm
Dir
 
Spd
km/h
Gust
km/h
Spd
kts
Gust
kts
29/11:30pm 12.9 12.2 11.3 90 0.9 W 6 9 3 5 1013.4 1013.6 38.2
29/11:00pm 13.1 11.5 11.5 90 0.9 WNW 11 15 6 8 1013.7 1013.9 37.4
29/10:30pm 13.4 11.1 11.8 90 0.9 WNW 15 22 8 12 1013.6 1013.8 37.0
29/10:00pm 13.7 11.5 12.1 90 0.9 WNW 15 24 8 13 1013.8 1014.0 36.8
29/09:30pm 13.1 10.0 11.5 90 0.9 WNW 19 24 10 13 1014.0 1014.2 36.2
29/09:00pm 14.2 12.2 12.8 91 0.8 WNW 15 20 8 11 1014.4 1014.6 33.4
29/08:30pm 14.2 13.4 12.8 91 0.8 WNW 9 15 5 8 1013.7 1013.9 29.8
29/08:00pm 13.3 10.2 11.7 90 0.9 W 19 26 10 14 1013.6 1013.8 24.8
29/07:30pm 13.9 12.5 12.3 90 0.9 NNW 11 19 6 10 1013.6 1013.8 14.2
29/07:00pm 13.9 10.8 12.1 89 1.0 NNW 20 26 11 14 1013.4 1013.6 11.8
29/06:30pm 14.1 11.1 12.1 88 1.1 NNW 19 30 10 16 1013.4 1013.6 9.2
29/06:00pm 14.0 11.4 12.0 88 1.1 NW 17 24 9 13 1013.0 1013.1 9.0
29/05:30pm 14.0 12.9 11.9 87 1.1 WNW 9 15 5 8 1012.9 1013.0 8.2
29/05:00pm 13.8 13.2 11.8 88 1.1 N 6 9 3 5 1012.7 1012.8 8.2
29/04:30pm 13.8 12.6 11.7 87 1.1 NW 9 15 5 8 1013.0 1013.1 8.2
29/04:00pm 14.0 13.0 12.2 89 1.0 NW 9 13 5 7 1012.7 1012.8 8.2
29/03:30pm 13.0 13.1 11.4 90 0.9 WNW 2 6 1 3 1012.2 1012.4 8.2
29/03:00pm 12.3 9.3 10.7 90 0.8 SW 17 24 9 13 1013.1 1013.2 7.6
29/02:30pm 12.2 8.6 10.6 90 0.8 SW 20 30 11 16 1013.5 1013.7 5.2
29/02:00pm 12.2 7.4 10.3 88 1.0 SW 26 39 14 21 1012.6 1012.7 2.0
29/01:38pm 14.2 7.0 9.2 72 2.6 WSW 37 48 20 26 1012.1 1012.3 0.4
29/01:30pm 18.3 13.3 11.1 63 4.0 NW 28 39 15 21 1011.0 1011.2 0.0
29/01:13pm 18.5 13.3 11.6 64 3.8 NW 30 50 16 27 1011.0 1011.2 0.0
29/01:00pm 18.6 12.9 11.7 64 3.9 NNW 33 44 18 24 1011.0 1011.2 0.0
29/12:30pm 19.0 14.0 12.3 65 3.8 NW 30 41 16 22 1011.2 1011.4 0.0
29/12:00pm 18.5 13.2 12.5 68 3.4 NW 32 48 17 26 1011.6 1011.8 0.0
29/11:30am 17.7 13.0 11.9 69 3.2 NNW 28 44 15 24 1012.0 1012.2 0.0
29/11:00am 17.7 13.0 11.9 69 3.2 NW 28 41 15 22 1012.2 1012.4 0.0
29/10:30am 17.1 11.2 11.2 68 3.2 NNW 33 43 18 23 1012.6 1012.7 0.0
29/10:00am 18.1 13.4 12.1 68 3.4 NNW 28 43 15 23 1012.6 1012.7 0.0
29/09:30am 16.3 12.3 11.7 74 2.5 NNW 24 33 13 18 1013.1 1013.2 0.0
29/09:00am 15.7 12.5 11.9 78 2.1 NNW 20 30 11 16 1013.4 1013.6 0.0
29/08:30am 14.2 9.9 10.8 80 1.8 NNW 24 33 13 18 1013.3 1013.4 0.0
29/08:00am 12.9 9.6 9.7 81 1.7 N 17 20 9 11 1013.3 1013.4 0.0
29/07:30am 11.1 8.6 8.3 83 1.4 N 11 15 6 8 1013.3 1013.4 0.0
29/07:00am 9.4 6.7 7.3 87 1.0 N 11 13 6 7 1013.2 1013.3 0.0
29/06:30am 8.4 5.8 6.0 85 1.1 NNW 9 11 5 6 1013.2 1013.3 0.0
29/06:00am 8.6 6.4 6.1 84 1.2 NNW 7 9 4 5 1013.1 1013.2 0.0
29/05:30am 8.6 6.3 5.7 82 1.3 NNW 7 9 4 5 1013.0 1013.1 0.0
29/05:00am 8.4 6.1 5.5 82 1.3 NNW 7 7 4 4 1013.1 1013.2 0.0
29/04:30am 8.8 6.5 5.9 82 1.3 N 7 11 4 6 1013.2 1013.3 0.0
29/04:00am 8.2 5.8 5.3 82 1.3 NNW 7 9 4 5 1013.2 1013.3 0.0
29/03:30am 7.8 5.5 4.6 80 1.4 NW 6 7 3 4 1013.1 1013.2 0.0
29/03:00am 8.0 5.6 5.1 82 1.3 NNW 7 9 4 5 1013.1 1013.2 0.0
29/02:30am 7.4 4.5 4.9 84 1.1 NNW 9 11 5 6 1013.3 1013.4 0.0
29/02:00am 6.7 3.7 4.2 84 1.1 N 9 11 5 6 1013.6 1013.8 0.0
29/01:30am 7.0 4.7 4.7 85 1.0 NNW 6 9 3 5 1013.9 1014.1 0.0
29/01:00am 6.4 4.6 3.7 83 1.2 N 2 4 1 2 1014.1 1014.3 0.0
29/12:30am 7.4 4.9 4.7 83 1.2 N 7 7 4 4 1014.3 1014.5 0.0
29/12:00am 6.0 3.7 2.5 78 1.5 NW 4 4 2 2 1014.4 1014.6 0.0
 
Date/Time
WST
Temp
°C
App
Temp
°C
Dew
Point
Rel
Hum
%
Delta-T
°C
Wind Press
QNH
hPa
Press
MSL
hPa
Rain
since 9 am
mm
Dir
 
Spd
km/h
Gust
km/h
Spd
kts
Gust
kts
28/11:30pm 8.3 6.8 5.2 81 1.4 N 2 4 1 2 1014.7 1014.9 0.0
28/11:00pm 7.7 5.7 4.3 79 1.5 NNE 4 6 2 3 1014.9 1015.1 0.0
28/10:30pm 9.3 7.4 4.9 74 2.0 NNW 4 4 2 2 1015.0 1015.2 0.0
28/10:00pm 11.3 9.2 5.8 69 2.6 NW 6 7 3 4 1015.1 1015.3 0.0
28/09:30pm 11.0 8.8 6.0 71 2.4 NNW 7 9 4 5 1015.0 1015.2 0.0
28/09:00pm 11.5 9.2 5.8 68 2.7 NNW 7 9 4 5 1015.2 1015.4 0.0
28/08:30pm 12.1 9.8 5.9 66 3.0 N 7 9 4 5 1015.2 1015.4 0.0
28/08:00pm 13.4 11.5 6.5 63 3.4 NNW 6 7 3 4 1015.1 1015.3 0.0
28/07:30pm 12.6 10.6 6.4 66 3.0 NNW 6 7 3 4 1015.0 1015.2 0.0
28/07:00pm 12.9 10.9 7.1 68 2.9 NNW 7 11 4 6 1014.9 1015.1 0.0
28/06:30pm 14.6 12.4 6.4 58 4.0 NNW 7 9 4 5 1014.9 1015.1 0.0
28/06:00pm 15.1 13.1 6.9 58 4.1 NNW 7 9 4 5 1014.8 1015.0 0.0
28/05:30pm 17.0 14.7 5.6 47 5.6 NW 7 9 4 5 1014.6 1014.8 0.0
28/05:00pm 18.5 15.4 5.4 42 6.5 NW 11 17 6 9 1014.4 1014.6 0.0
28/04:30pm 19.3 15.1 5.7 41 6.8 NNW 17 24 9 13 1014.4 1014.6 0.0
28/04:00pm 20.0 15.0 4.5 36 7.6 NNW 20 28 11 15 1014.3 1014.5 0.0
28/03:30pm 20.7 14.0 3.9 33 8.2 NNW 28 39 15 21 1014.2 1014.4 0.0
28/03:00pm 21.8 16.5 6.9 38 7.7 NNW 24 33 13 18 1014.4 1014.6 0.0
28/02:30pm 21.4 15.5 7.3 40 7.4 NNW 28 37 15 20 1014.5 1014.7 0.0
28/02:00pm 20.2 16.4 9.2 49 5.9 NNW 19 28 10 15 1014.7 1014.9 0.0
28/01:30pm 19.0 15.4 9.8 55 5.0 NNW 19 24 10 13 1014.8 1015.0 0.0
28/01:00pm 18.7 16.3 11.3 62 4.1 NNW 15 19 8 10 1015.2 1015.4 0.0
28/12:30pm 18.2 16.1 11.3 64 3.8 NNW 13 19 7 10 1015.7 1015.8 0.0
28/12:00pm 17.8 16.0 10.9 64 3.8 NNW 11 17 6 9 1015.8 1015.9 0.0
28/11:30am 17.4 14.7 10.3 63 3.8 NNW 15 19 8 10 1016.1 1016.3 0.0
28/11:00am 17.3 14.8 10.9 66 3.5 N 15 20 8 11 1016.2 1016.4 0.0
28/10:30am 17.5 14.5 11.8 69 3.2 NNW 19 24 10 13 1016.6 1016.8 0.0
28/10:00am 16.3 13.6 11.7 74 2.5 N 17 24 9 13 1016.7 1016.9 0.0
28/09:30am 15.4 12.4 11.8 79 2.0 N 19 24 10 13 1016.9 1017.1 0.0
28/09:00am 13.9 11.6 11.8 87 1.1 NNW 15 22 8 12 1017.0 1017.2 0.2
28/08:30am 12.1 11.2 10.7 91 0.7 N 6 11 3 6 1017.1 1017.3 0.2

Other Formats:

Comma delimited format used in spreadsheet applications
http://www.bom.gov.au/fwo/IDW60801/IDW60801.94628.axf

JavaScript Object Notation format (JSON) in row-major order
http://www.bom.gov.au/fwo/IDW60801/IDW60801.94628.json